Olcott, New York
Current Conditions -  °F | °C
As of 12:53 AM on Sunday 23 Nov 2014 (Local Time) from KIAG Reporting Station
Light Rain Light Rain  
Wind Chill: 36°   Ceiling: 2700
Heat Index: 44°   Visibility: 7mi
Dew Point: 41°   Wind: 17mph
Humidity: 89%   Direction: 230°SW
Pressure: 29.98"   Gusts: NA
Location:  43.34°N, 78.71°W
Report Text: KIAG 230553Z AUTO 23015KT 7SM -RA FEW021 BKN027 OVC036 07/05 A2998 RMK AO2 SLP162 P0003 60007 T00670050 10078 20067 50004 $
Loading
Personal Weather Stations






























Interactive Weather Map New forecast layout! Learn more

10-Day Weather Forecast

Advertisements
Track Severe Weather on mobile